createdAt,value
2018-06-16T00:00:40.914Z,100626.55
2018-06-16T00:03:09.564Z,100623.70
2018-06-16T00:05:38.185Z,100624.50
2018-06-16T00:08:06.979Z,100625.30
2018-06-16T00:10:35.486Z,100625.16
2018-06-16T00:13:04.085Z,100624.24
2018-06-16T00:15:32.709Z,100621.38
2018-06-16T00:18:01.259Z,100618.33
2018-06-16T00:20:29.877Z,100620.59
2018-06-16T00:22:58.513Z,100615.92
2018-06-16T00:25:27.081Z,100623.91
2018-06-16T00:27:55.797Z,100618.97
2018-06-16T00:30:24.382Z,100618.36
2018-06-16T00:32:52.961Z,100619.52
2018-06-16T00:35:21.645Z,100624.91
2018-06-16T00:37:50.271Z,100619.02
2018-06-16T00:40:18.948Z,100618.97
2018-06-16T00:42:47.601Z,100614.75
2018-06-16T00:45:16.165Z,100616.33
2018-06-16T00:47:44.751Z,100616.68
2018-06-16T00:50:13.305Z,100617.84
2018-06-16T00:52:41.868Z,100611.92
2018-06-16T00:55:10.746Z,100613.22
2018-06-16T00:57:45.212Z,100615.34
2018-06-16T01:00:14.205Z,100615.80
2018-06-16T01:02:42.680Z,100617.64
2018-06-16T01:05:11.830Z,100616.06
2018-06-16T01:07:40.438Z,100611.91
2018-06-16T01:10:10.323Z,100614.33
2018-06-16T01:12:39.654Z,100616.74
2018-06-16T01:15:08.716Z,100606.97
2018-06-16T01:17:37.200Z,100607.52
2018-06-16T01:20:05.878Z,100607.42
2018-06-16T01:22:34.405Z,100611.92
2018-06-16T01:25:03.603Z,100607.52
2018-06-16T01:27:32.123Z,100599.16
2018-06-16T01:30:00.641Z,100599.85
2018-06-16T01:32:29.518Z,100602.89
2018-06-16T01:34:58.133Z,100602.36
2018-06-16T01:37:26.886Z,100603.64
2018-06-16T01:39:55.520Z,100597.94
2018-06-16T01:42:24.030Z,100597.34
2018-06-16T01:44:52.697Z,100600.08
2018-06-16T01:47:21.323Z,100599.61
2018-06-16T01:49:50.356Z,100596.66
2018-06-16T01:52:18.905Z,100597.03
2018-06-16T01:54:47.480Z,100599.92
2018-06-16T01:57:16.019Z,100598.67
2018-06-16T01:59:44.772Z,100598.50
2018-06-16T02:02:13.363Z,100595.36
2018-06-16T02:04:42.013Z,100596.81
2018-06-16T02:07:10.839Z,100595.52
2018-06-16T02:09:39.554Z,100592.98
2018-06-16T02:12:08.206Z,100592.94
2018-06-16T02:14:36.894Z,100589.29
2018-06-16T02:17:05.555Z,100587.39
2018-06-16T02:19:34.268Z,100584.64
2018-06-16T02:22:02.839Z,100582.25
2018-06-16T02:24:31.464Z,100573.67
2018-06-16T02:27:00.646Z,100579.34
2018-06-16T02:29:30.196Z,100580.59
2018-06-16T02:31:58.774Z,100580.59
2018-06-16T02:34:27.622Z,100577.55
2018-06-16T02:36:56.246Z,100580.45
2018-06-16T02:39:24.870Z,100582.66
2018-06-16T02:41:53.435Z,100572.79
2018-06-16T02:44:21.996Z,100577.45
2018-06-16T02:46:50.613Z,100575.56
2018-06-16T02:49:19.111Z,100575.89
2018-06-16T02:51:47.748Z,100581.47
2018-06-16T02:54:16.253Z,100583.41
2018-06-16T02:56:45.427Z,100575.20
2018-06-16T02:59:14.011Z,100577.28
2018-06-16T03:01:42.559Z,100576.39
2018-06-16T03:04:11.245Z,100573.35
2018-06-16T03:06:39.895Z,100575.83
2018-06-16T03:09:09.266Z,100572.28
2018-06-16T03:11:38.158Z,100574.91
2018-06-16T03:14:07.001Z,100570.52
2018-06-16T03:16:35.542Z,100572.22
2018-06-16T03:19:04.047Z,100571.54
2018-06-16T03:21:32.775Z,100570.17
2018-06-16T03:24:01.308Z,100575.44
2018-06-16T03:26:30.304Z,100570.44
2018-06-16T03:28:59.181Z,100577.62
2018-06-16T03:31:28.053Z,100572.67
2018-06-16T03:33:57.590Z,100570.55
2018-06-16T03:36:26.147Z,100567.58
2018-06-16T03:38:54.834Z,100570.08
2018-06-16T03:41:23.492Z,100567.07
2018-06-16T03:43:52.420Z,100566.98
2018-06-16T03:46:21.317Z,100568.66
2018-06-16T03:48:49.931Z,100569.88
2018-06-16T03:51:18.631Z,100571.16
2018-06-16T03:53:47.396Z,100567.23
2018-06-16T03:56:16.006Z,100564.59
2018-06-16T03:58:44.906Z,100565.28
2018-06-16T04:01:13.439Z,100564.45
2018-06-16T04:03:42.057Z,100571.70
2018-06-16T04:06:11.329Z,100566.84
2018-06-16T04:08:40.265Z,100568.08
2018-06-16T04:11:09.501Z,100567.94
2018-06-16T04:13:39.975Z,100568.29
2018-06-16T04:16:08.495Z,100558.73
2018-06-16T04:18:37.154Z,100558.21
2018-06-16T04:21:08.683Z,100565.19
2018-06-16T04:23:37.359Z,100562.21
2018-06-16T04:26:06.110Z,100557.50
2018-06-16T04:28:34.863Z,100553.59
2018-06-16T04:31:03.684Z,100559.02
2018-06-16T04:33:32.303Z,100554.94
2018-06-16T04:36:01.160Z,100554.68
2018-06-16T04:38:30.030Z,100559.28
2018-06-16T04:40:58.656Z,100555.59
2018-06-16T04:43:27.274Z,100553.11
2018-06-16T04:45:56.676Z,100553.98
2018-06-16T04:48:26.219Z,100550.05
2018-06-16T04:50:54.808Z,100549.31
2018-06-16T04:53:23.367Z,100548.42
2018-06-16T04:55:52.026Z,100547.38
2018-06-16T04:58:20.608Z,100541.66
2018-06-16T05:00:49.484Z,100541.47
2018-06-16T05:03:17.981Z,100547.26
2018-06-16T05:05:46.807Z,100550.11
2018-06-16T05:08:15.318Z,100553.78
2018-06-16T05:10:43.866Z,100554.78
2018-06-16T05:13:12.404Z,100552.80
2018-06-16T05:15:42.398Z,100551.75
2018-06-16T05:18:11.080Z,100556.70
2018-06-16T05:20:39.685Z,100557.47
2018-06-16T05:23:08.392Z,100548.87
2018-06-16T05:25:36.967Z,100548.64
2018-06-16T05:28:05.561Z,100546.22
2018-06-16T05:30:34.173Z,100552.92
2018-06-16T05:33:02.865Z,100544.65
2018-06-16T05:35:31.431Z,100550.20
2018-06-16T05:38:00.095Z,100544.64
2018-06-16T05:40:28.705Z,100545.41
2018-06-16T05:42:57.235Z,100547.70
2018-06-16T05:45:25.732Z,100550.72
2018-06-16T05:47:54.243Z,100553.02
2018-06-16T05:50:22.768Z,100556.83
2018-06-16T05:52:51.666Z,100554.45
2018-06-16T05:55:20.202Z,100557.86
2018-06-16T05:57:48.888Z,100563.23
2018-06-16T06:00:17.462Z,100560.86
2018-06-16T06:02:45.950Z,100554.91
2018-06-16T06:05:14.554Z,100558.75
2018-06-16T06:07:43.096Z,100559.02
2018-06-16T06:10:11.691Z,100561.16
2018-06-16T06:12:40.357Z,100562.20
2018-06-16T06:15:08.875Z,100563.71
2018-06-16T06:17:37.379Z,100562.72
2018-06-16T06:20:06.529Z,100564.87
2018-06-16T06:22:35.215Z,100566.79
2018-06-16T06:25:04.055Z,100571.00
2018-06-16T06:27:32.739Z,100562.33
2018-06-16T06:30:01.335Z,100566.78
2018-06-16T06:32:29.893Z,100571.55
2018-06-16T06:35:00.030Z,100575.81
2018-06-16T06:37:28.570Z,100570.14
2018-06-16T06:39:57.153Z,100578.34
2018-06-16T06:42:25.695Z,100572.38
2018-06-16T06:44:54.230Z,100568.52
2018-06-16T06:47:22.811Z,100565.64
2018-06-16T06:49:51.455Z,100567.33
2018-06-16T06:52:20.041Z,100573.41
2018-06-16T06:54:48.538Z,100564.02
2018-06-16T06:57:17.147Z,100563.74
2018-06-16T06:59:45.780Z,100565.98
2018-06-16T07:02:14.315Z,100562.69
2018-06-16T07:04:43.057Z,100561.58
2018-06-16T07:07:11.686Z,100561.28
2018-06-16T07:09:43.258Z,100568.11
2018-06-16T07:12:11.941Z,100566.64
2018-06-16T07:14:40.615Z,100563.50
2018-06-16T07:17:09.695Z,100565.34
2018-06-16T07:19:38.722Z,100560.30
2018-06-16T07:22:07.337Z,100561.98
2018-06-16T07:24:35.914Z,100559.05
2018-06-16T07:27:04.762Z,100560.95
2018-06-16T07:29:33.242Z,100557.82
2018-06-16T07:32:02.200Z,100560.53
2018-06-16T07:34:30.806Z,100559.45
2018-06-16T07:36:59.774Z,100565.25
2018-06-16T07:39:28.282Z,100562.89
2018-06-16T07:41:56.901Z,100561.45
2018-06-16T07:44:26.100Z,100559.32
2018-06-16T07:46:54.638Z,100559.61
2018-06-16T07:49:23.249Z,100560.23
2018-06-16T07:51:53.066Z,100559.00
2018-06-16T07:54:22.358Z,100556.69
2018-06-16T07:56:51.426Z,100553.31
2018-06-16T07:59:20.024Z,100549.36
2018-06-16T08:04:48.067Z,100556.73
2018-06-16T08:07:17.227Z,100559.06
2018-06-16T08:09:45.740Z,100546.45
2018-06-16T08:12:14.592Z,100547.34
2018-06-16T08:14:44.632Z,100549.09
2018-06-16T08:17:13.213Z,100544.28
2018-06-16T08:19:41.942Z,100542.84
2018-06-16T08:22:10.465Z,100538.23
2018-06-16T08:24:40.003Z,100536.75
2018-06-16T08:27:08.938Z,100538.20
2018-06-16T08:29:37.547Z,100542.47
2018-06-16T08:32:06.532Z,100537.25
2018-06-16T08:34:35.501Z,100539.31
2018-06-16T08:37:04.176Z,100545.04
2018-06-16T08:39:32.678Z,100539.57
2018-06-16T08:42:01.645Z,100537.20
2018-06-16T08:44:30.354Z,100538.27
2018-06-16T08:46:59.293Z,100536.73
2018-06-16T08:49:28.215Z,100542.11
2018-06-16T08:51:57.250Z,100536.70
2018-06-16T08:54:27.857Z,100540.84
2018-06-16T08:56:56.791Z,100534.92
2018-06-16T08:59:25.392Z,100538.28
2018-06-16T09:01:53.970Z,100539.59
2018-06-16T09:04:22.890Z,100536.23
2018-06-16T09:06:51.922Z,100536.94
2018-06-16T09:09:20.766Z,100531.22
2018-06-16T09:11:49.276Z,100533.09
2018-06-16T09:14:17.926Z,100532.05
2018-06-16T09:16:48.497Z,100524.89
2018-06-16T09:19:17.264Z,100532.88
2018-06-16T09:21:45.779Z,100531.30
2018-06-16T09:24:14.728Z,100526.42
2018-06-16T09:26:43.327Z,100522.94
2018-06-16T09:29:12.449Z,100525.73
2018-06-16T09:31:41.453Z,100523.53
2018-06-16T09:34:10.179Z,100526.14
2018-06-16T09:36:39.782Z,100526.27
2018-06-16T09:39:10.329Z,100526.22
2018-06-16T09:41:39.508Z,100527.46
2018-06-16T09:44:09.042Z,100527.31
2018-06-16T09:46:37.638Z,100528.28
2018-06-16T09:49:06.247Z,100531.45
2018-06-16T09:51:34.857Z,100526.60
2018-06-16T09:54:04.267Z,100524.84
2018-06-16T09:56:32.772Z,100520.27
2018-06-16T09:59:01.391Z,100522.52
2018-06-16T10:01:30.467Z,100523.70
2018-06-16T10:03:59.481Z,100526.87
2018-06-16T10:06:28.159Z,100525.05
2018-06-16T10:08:56.684Z,100520.97
2018-06-16T10:11:26.573Z,100518.45
2018-06-16T10:13:55.106Z,100521.23
2018-06-16T10:16:23.630Z,100515.72
2018-06-16T10:18:53.532Z,100509.59
2018-06-16T10:21:22.173Z,100513.11
2018-06-16T10:23:50.678Z,100515.03
2018-06-16T10:26:19.250Z,100510.30
2018-06-16T10:28:47.778Z,100510.90
2018-06-16T10:31:16.367Z,100513.03
2018-06-16T10:33:44.958Z,100509.64
2018-06-16T10:36:13.471Z,100510.41
2018-06-16T10:38:42.114Z,100507.63
2018-06-16T10:41:10.585Z,100500.80
2018-06-16T10:43:39.278Z,100509.70
2018-06-16T10:46:07.747Z,100503.03
2018-06-16T10:48:36.249Z,100496.19
2018-06-16T10:51:05.186Z,100494.67
2018-06-16T10:53:33.914Z,100503.48
2018-06-16T10:56:02.502Z,100500.74
2018-06-16T10:58:31.056Z,100497.30
2018-06-16T11:00:59.531Z,100495.72
2018-06-16T11:03:28.443Z,100495.66
2018-06-16T11:05:57.025Z,100495.29
2018-06-16T11:08:25.551Z,100494.73
2018-06-16T11:10:54.493Z,100495.73
2018-06-16T11:13:23.152Z,100492.02
2018-06-16T11:15:51.849Z,100493.70
2018-06-16T11:18:20.603Z,100492.62
2018-06-16T11:20:49.337Z,100493.36
2018-06-16T11:23:18.027Z,100491.92
2018-06-16T11:25:46.558Z,100481.78
2018-06-16T11:28:15.152Z,100482.85
2018-06-16T11:30:43.955Z,100476.71
2018-06-16T11:33:12.893Z,100480.97
2018-06-16T11:35:41.434Z,100474.72
2018-06-16T11:38:10.197Z,100474.22
2018-06-16T11:40:38.790Z,100470.23
2018-06-16T11:43:07.811Z,100473.35
2018-06-16T11:45:36.535Z,100465.20
2018-06-16T11:48:05.610Z,100464.06
2018-06-16T11:50:34.758Z,100457.04
2018-06-16T11:53:03.366Z,100452.30
2018-06-16T11:55:32.265Z,100451.88
2018-06-16T11:58:00.950Z,100445.12
2018-06-16T12:00:29.470Z,100445.03
2018-06-16T12:02:57.980Z,100441.22
2018-06-16T12:05:26.799Z,100437.58
2018-06-16T12:07:55.827Z,100440.72
2018-06-16T12:10:24.475Z,100428.85
2018-06-16T12:12:53.226Z,100422.89
2018-06-16T12:15:22.184Z,100423.84
2018-06-16T12:17:50.738Z,100403.86
2018-06-16T12:20:19.459Z,100410.32
2018-06-16T12:22:48.176Z,100410.16
2018-06-16T12:25:19.226Z,100407.14
2018-06-16T12:27:47.811Z,100408.55
2018-06-16T12:30:16.985Z,100399.37
2018-06-16T12:32:45.667Z,100399.80
2018-06-16T12:35:14.613Z,100394.25
2018-06-16T12:37:43.436Z,100389.64
2018-06-16T12:40:12.092Z,100392.72
2018-06-16T12:42:40.622Z,100393.48
2018-06-16T12:45:09.189Z,100389.69
2018-06-16T12:47:38.149Z,100390.63
2018-06-16T12:50:06.735Z,100385.33
2018-06-16T12:52:35.490Z,100387.90
2018-06-16T12:55:04.596Z,100380.67
2018-06-16T12:57:33.881Z,100389.42
2018-06-16T13:00:03.898Z,100386.13
2018-06-16T13:02:33.835Z,100389.00
2018-06-16T13:05:03.520Z,100374.39
2018-06-16T13:07:34.391Z,100378.99
2018-06-16T13:10:04.780Z,100368.30
2018-06-16T13:12:34.134Z,100372.98
2018-06-16T13:15:03.094Z,100378.69
2018-06-16T13:17:32.049Z,100372.23
2018-06-16T13:20:00.580Z,100376.59
2018-06-16T13:22:29.489Z,100372.11
2018-06-16T13:24:58.243Z,100374.04
2018-06-16T13:27:26.921Z,100367.13
2018-06-16T13:29:55.438Z,100370.58
2018-06-16T13:32:25.128Z,100369.61
2018-06-16T13:34:54.306Z,100368.04
2018-06-16T13:37:23.227Z,100361.98
2018-06-16T13:39:51.930Z,100370.70
2018-06-16T13:42:20.842Z,100365.32
2018-06-16T13:44:49.499Z,100362.73
2018-06-16T13:47:18.559Z,100374.06
2018-06-16T13:49:47.041Z,100367.66
2018-06-16T13:52:15.581Z,100363.51
2018-06-16T13:54:44.096Z,100364.12
2018-06-16T13:57:12.745Z,100359.03
2018-06-16T13:59:41.253Z,100355.13
2018-06-16T14:02:09.762Z,100354.88
2018-06-16T14:04:38.440Z,100356.09
2018-06-16T14:07:07.024Z,100355.77
2018-06-16T14:09:35.520Z,100355.30
2018-06-16T14:12:04.228Z,100349.76
2018-06-16T14:14:32.809Z,100356.49
2018-06-16T14:17:01.395Z,100356.56
2018-06-16T14:19:29.930Z,100356.08
2018-06-16T14:21:58.469Z,100351.24
2018-06-16T14:24:27.078Z,100354.23
2018-06-16T14:26:55.578Z,100342.91
2018-06-16T14:29:24.177Z,100337.85
2018-06-16T14:31:52.861Z,100339.70
2018-06-16T14:34:21.581Z,100339.66
2018-06-16T14:36:50.555Z,100343.94
2018-06-16T14:39:19.123Z,100340.56
2018-06-16T14:41:48.084Z,100336.17
2018-06-16T14:44:16.638Z,100335.89
2018-06-16T14:46:45.197Z,100338.22
2018-06-16T14:49:14.378Z,100337.03
2018-06-16T14:51:42.990Z,100331.74
2018-06-16T14:54:11.546Z,100331.62
2018-06-16T14:56:40.012Z,100332.88
2018-06-16T14:59:08.669Z,100337.44
2018-06-16T15:01:37.301Z,100334.67
2018-06-16T15:04:05.813Z,100330.80
2018-06-16T15:06:34.469Z,100329.48
2018-06-16T15:09:03.108Z,100328.16
2018-06-16T15:11:31.756Z,100325.13
2018-06-16T15:14:00.664Z,100327.28
2018-06-16T15:16:29.237Z,100328.23
2018-06-16T15:18:58.123Z,100324.09
2018-06-16T15:21:26.908Z,100321.59
2018-06-16T15:23:55.493Z,100320.52
2018-06-16T15:26:24.168Z,100330.17
2018-06-16T15:28:52.692Z,100326.85
2018-06-16T15:31:21.318Z,100320.85
2018-06-16T15:33:49.967Z,100322.34
2018-06-16T15:36:19.013Z,100317.98
2018-06-16T15:38:47.528Z,100318.47
2018-06-16T15:41:16.119Z,100320.61
2018-06-16T15:43:44.691Z,100319.02
2018-06-16T15:46:13.291Z,100315.36
2018-06-16T15:48:42.734Z,100312.03
2018-06-16T15:51:11.360Z,100314.82
2018-06-16T15:53:40.059Z,100307.11
2018-06-16T15:56:08.698Z,100308.22
2018-06-16T15:58:37.242Z,100312.98
2018-06-16T16:01:05.865Z,100306.95
2018-06-16T16:03:34.565Z,100308.34
2018-06-16T16:06:03.155Z,100312.44
2018-06-16T16:08:31.944Z,100312.93
2018-06-16T16:11:00.543Z,100309.44
2018-06-16T16:13:29.053Z,100307.47
2018-06-16T16:15:57.848Z,100309.97
2018-06-16T16:18:26.596Z,100308.91
2018-06-16T16:20:55.446Z,100296.23
2018-06-16T16:23:23.990Z,100299.51
2018-06-16T16:25:52.628Z,100302.41
2018-06-16T16:28:21.386Z,100292.94
2018-06-16T16:30:49.884Z,100298.64
2018-06-16T16:33:18.732Z,100293.11
2018-06-16T16:35:47.519Z,100296.46
2018-06-16T16:38:16.385Z,100291.23
2018-06-16T16:40:44.957Z,100294.91
2018-06-16T16:43:13.888Z,100296.07
2018-06-16T16:45:42.776Z,100296.44
2018-06-16T16:48:11.596Z,100300.08
2018-06-16T16:50:40.532Z,100301.48
2018-06-16T16:53:09.169Z,100298.36
2018-06-16T16:55:38.038Z,100297.01
2018-06-16T16:58:06.980Z,100297.83
2018-06-16T17:00:35.506Z,100294.92
2018-06-16T17:03:04.232Z,100296.76
2018-06-16T17:05:32.765Z,100295.16
2018-06-16T17:08:01.498Z,100296.06
2018-06-16T17:10:30.245Z,100299.21
2018-06-16T17:12:59.083Z,100295.36
2018-06-16T17:15:28.118Z,100298.19
2018-06-16T17:17:57.224Z,100293.68
2018-06-16T17:20:25.856Z,100297.70
2018-06-16T17:22:54.560Z,100302.16
2018-06-16T17:25:23.195Z,100299.30
2018-06-16T17:27:51.746Z,100304.09
2018-06-16T17:30:20.360Z,100302.59
2018-06-16T17:32:49.075Z,100297.61
2018-06-16T17:35:17.765Z,100292.97
2018-06-16T17:37:46.709Z,100302.27
2018-06-16T17:40:15.878Z,100296.48
2018-06-16T17:42:44.548Z,100295.58
2018-06-16T17:45:13.139Z,100296.28
2018-06-16T17:47:41.726Z,100294.43
2018-06-16T17:50:10.251Z,100292.91
2018-06-16T17:52:38.849Z,100293.89
2018-06-16T17:55:07.453Z,100291.92
2018-06-16T17:57:36.066Z,100288.49
2018-06-16T18:00:05.403Z,100292.82
2018-06-16T18:02:34.022Z,100293.76
2018-06-16T18:05:02.637Z,100291.59
2018-06-16T18:07:31.141Z,100290.80
2018-06-16T18:09:59.769Z,100293.69
2018-06-16T18:12:28.397Z,100295.22
2018-06-16T18:14:57.039Z,100294.77
2018-06-16T18:17:25.597Z,100291.55
2018-06-16T18:19:54.370Z,100289.05
2018-06-16T18:22:23.227Z,100294.66
2018-06-16T18:24:52.016Z,100291.21
2018-06-16T18:27:20.574Z,100289.30
2018-06-16T18:29:50.799Z,100283.47
2018-06-16T18:32:19.330Z,100284.32
2018-06-16T18:34:47.902Z,100287.87
2018-06-16T18:37:16.466Z,100285.63
2018-06-16T18:39:45.100Z,100287.53
2018-06-16T18:42:13.770Z,100284.56
2018-06-16T18:44:42.464Z,100285.64
2018-06-16T18:47:11.370Z,100290.65
2018-06-16T18:49:39.831Z,100292.18
2018-06-16T18:52:08.404Z,100288.99
2018-06-16T18:54:36.981Z,100286.92
2018-06-16T18:57:05.867Z,100289.08
2018-06-16T18:59:34.519Z,100284.89
2018-06-16T19:02:03.208Z,100284.44
2018-06-16T19:04:31.803Z,100289.30
2018-06-16T19:07:00.752Z,100283.72
2018-06-16T19:09:29.335Z,100285.02
2018-06-16T19:11:57.990Z,100286.31
2018-06-16T19:14:26.662Z,100279.54
2018-06-16T19:16:55.222Z,100278.96
2018-06-16T19:19:24.153Z,100281.45
2018-06-16T19:21:53.005Z,100284.87
2018-06-16T19:24:22.216Z,100287.02
2018-06-16T19:26:50.692Z,100276.55
2018-06-16T19:29:19.410Z,100273.42
2018-06-16T19:31:47.986Z,100275.80
2018-06-16T19:34:16.634Z,100277.27
2018-06-16T19:36:45.212Z,100278.41
2018-06-16T19:39:13.782Z,100288.38
2018-06-16T19:41:42.295Z,100290.03
2018-06-16T19:44:11.233Z,100293.67
2018-06-16T19:46:39.886Z,100289.77
2018-06-16T19:49:09.020Z,100295.81
2018-06-16T19:51:38.010Z,100300.02
2018-06-16T19:54:07.103Z,100299.55
2018-06-16T19:56:36.037Z,100301.42
2018-06-16T19:59:04.662Z,100304.79
2018-06-16T20:01:33.561Z,100301.36
2018-06-16T20:04:02.232Z,100309.98
2018-06-16T20:06:30.854Z,100310.73
2018-06-16T20:08:59.543Z,100314.02
2018-06-16T20:11:28.126Z,100309.70
2018-06-16T20:13:57.052Z,100314.86
2018-06-16T20:16:25.619Z,100310.44
2018-06-16T20:19:24.813Z,100307.67
2018-06-16T20:21:53.295Z,100310.34
2018-06-16T20:24:21.797Z,100313.62
2018-06-16T20:26:50.342Z,100308.55
2018-06-16T20:29:18.791Z,100309.71
2018-06-16T20:31:47.306Z,100310.31
2018-06-16T20:34:15.892Z,100314.35
2018-06-16T20:36:44.393Z,100310.68
2018-06-16T20:39:12.860Z,100311.91
2018-06-16T20:41:41.485Z,100315.65
2018-06-16T20:44:10.038Z,100312.48
2018-06-16T20:46:39.650Z,100324.20
2018-06-16T20:49:08.327Z,100317.35
2018-06-16T20:51:36.955Z,100322.48
2018-06-16T20:54:05.600Z,100318.78
2018-06-16T20:56:34.195Z,100317.19
2018-06-16T20:59:02.802Z,100316.13
2018-06-16T21:01:31.616Z,100314.26
2018-06-16T21:04:00.171Z,100312.13
2018-06-16T21:06:28.703Z,100312.80
2018-06-16T21:08:57.496Z,100303.60
2018-06-16T21:11:26.775Z,100306.77
2018-06-16T21:13:55.305Z,100310.11
2018-06-16T21:16:23.812Z,100310.67
2018-06-16T21:18:52.407Z,100316.08
2018-06-16T21:21:21.317Z,100312.73
2018-06-16T21:23:49.798Z,100318.84
2018-06-16T21:26:18.420Z,100306.80
2018-06-16T21:28:47.218Z,100312.64
2018-06-16T21:31:15.850Z,100310.16
2018-06-16T21:33:44.562Z,100307.74
2018-06-16T21:36:13.419Z,100308.48
2018-06-16T21:38:42.506Z,100306.17
2018-06-16T21:41:11.088Z,100309.41
2018-06-16T21:43:39.838Z,100300.87
2018-06-16T21:46:08.374Z,100283.29
2018-06-16T21:48:36.892Z,100297.99
2018-06-16T21:51:05.460Z,100296.56
2018-06-16T21:53:33.985Z,100285.97
2018-06-16T21:56:02.500Z,100284.95
2018-06-16T21:58:31.431Z,100298.05
2018-06-16T22:01:00.036Z,100291.35
2018-06-16T22:03:28.928Z,100292.21
2018-06-16T22:05:57.464Z,100293.48
2018-06-16T22:08:32.417Z,100286.72
2018-06-16T22:11:04.673Z,100297.31
2018-06-16T22:13:33.727Z,100294.52
2018-06-16T22:16:02.335Z,100287.84
2018-06-16T22:18:31.776Z,100291.51
2018-06-16T22:21:00.495Z,100291.15
2018-06-16T22:23:29.642Z,100287.05
2018-06-16T22:25:58.969Z,100287.22
2018-06-16T22:28:27.594Z,100285.45
2018-06-16T22:30:56.406Z,100288.50
2018-06-16T22:33:25.449Z,100288.23
2018-06-16T22:35:53.976Z,100287.00
2018-06-16T22:38:22.861Z,100281.69
2018-06-16T22:40:51.370Z,100285.06
2018-06-16T22:43:19.911Z,100291.28
2018-06-16T22:45:48.898Z,100285.42
2018-06-16T22:48:17.405Z,100289.22
2018-06-16T22:50:46.523Z,100280.76
2018-06-16T22:53:15.124Z,100276.73
2018-06-16T22:55:43.737Z,100270.09
2018-06-16T22:58:12.271Z,100266.20
2018-06-16T23:00:40.759Z,100264.15
2018-06-16T23:03:09.638Z,100265.53
2018-06-16T23:05:38.127Z,100261.27
2018-06-16T23:08:06.657Z,100261.07
2018-06-16T23:10:35.123Z,100258.83
2018-06-16T23:13:03.973Z,100259.02
2018-06-16T23:15:32.558Z,100262.79
2018-06-16T23:18:01.518Z,100269.35
2018-06-16T23:20:31.305Z,100263.20
2018-06-16T23:22:59.931Z,100261.34
2018-06-16T23:25:28.432Z,100260.80
2018-06-16T23:27:57.033Z,100258.73
2018-06-16T23:30:25.614Z,100259.83
2018-06-16T23:32:54.097Z,100257.91
2018-06-16T23:35:22.575Z,100251.69
2018-06-16T23:37:51.705Z,100255.52
2018-06-16T23:40:20.290Z,100262.11
2018-06-16T23:42:48.760Z,100283.27
2018-06-16T23:45:17.317Z,100299.88
2018-06-16T23:47:45.800Z,100290.84
2018-06-16T23:50:14.321Z,100304.48
2018-06-16T23:52:42.862Z,100291.59
2018-06-16T23:55:11.686Z,100306.91
2018-06-16T23:57:40.291Z,100303.84
